createdAt,value
2023-01-07T00:01:46.891Z,5.28
2023-01-07T00:04:34.161Z,5.68
2023-01-07T00:07:21.344Z,6.45
2023-01-07T00:10:09.555Z,6.05
2023-01-07T00:12:58.503Z,6.15
2023-01-07T00:15:46.167Z,6.63
2023-01-07T00:18:33.515Z,7.10
2023-01-07T00:21:22.404Z,5.53
2023-01-07T00:24:11.977Z,5.63
2023-01-07T00:26:59.195Z,5.65
2023-01-07T00:29:47.865Z,4.95
2023-01-07T00:32:54.518Z,6.75
2023-01-07T00:35:41.554Z,6.00
2023-01-07T00:38:29.338Z,5.20
2023-01-07T00:41:16.710Z,5.90
2023-01-07T00:44:04.978Z,5.15
2023-01-07T00:46:53.707Z,5.28
2023-01-07T00:49:40.939Z,4.63
2023-01-07T00:52:28.330Z,5.60
2023-01-07T00:55:15.964Z,5.22
2023-01-07T00:58:03.325Z,5.30
2023-01-07T01:00:51.340Z,5.30
2023-01-07T01:03:40.789Z,5.65
2023-01-07T01:06:28.112Z,5.47
2023-01-07T01:09:15.325Z,4.63
2023-01-07T01:12:02.701Z,4.13
2023-01-07T01:14:49.964Z,4.30
2023-01-07T01:17:37.558Z,4.35
2023-01-07T01:20:26.527Z,4.25
2023-01-07T01:23:14.104Z,5.03
2023-01-07T01:26:06.283Z,4.85
2023-01-07T01:28:53.594Z,4.35
2023-01-07T01:31:44.010Z,5.25
2023-01-07T01:34:31.545Z,4.90
2023-01-07T01:37:20.261Z,4.85
2023-01-07T01:40:08.801Z,5.93
2023-01-07T01:42:56.045Z,5.97
2023-01-07T01:45:43.523Z,6.93
2023-01-07T01:48:31.696Z,6.55
2023-01-07T01:51:24.041Z,6.50
2023-01-07T01:54:16.231Z,4.80
2023-01-07T01:57:09.799Z,4.38
2023-01-07T01:59:59.189Z,5.20
2023-01-07T02:02:50.457Z,4.72
2023-01-07T02:05:42.280Z,5.40
2023-01-07T02:08:29.876Z,5.45
2023-01-07T02:11:33.228Z,5.57
2023-01-07T02:14:45.598Z,5.15
2023-01-07T02:17:45.914Z,7.38
2023-01-07T02:20:58.143Z,9.18
2023-01-07T02:24:31.159Z,6.72
2023-01-07T02:27:44.387Z,7.05
2023-01-07T02:30:51.847Z,5.93
2023-01-07T02:33:52.043Z,7.72
2023-01-07T02:36:50.556Z,7.75
2023-01-07T02:39:49.212Z,7.63
2023-01-07T02:42:45.994Z,5.78
2023-01-07T02:45:37.574Z,5.75
2023-01-07T02:48:26.785Z,5.90
2023-01-07T02:51:15.697Z,6.25
2023-01-07T02:54:04.000Z,6.45
2023-01-07T02:57:20.015Z,5.55
2023-01-07T03:00:18.967Z,7.10
2023-01-07T03:03:25.789Z,7.35
2023-01-07T03:06:32.220Z,7.93
2023-01-07T03:09:30.460Z,6.88
2023-01-07T03:12:27.360Z,7.95
2023-01-07T03:15:21.091Z,8.35
2023-01-07T03:18:12.848Z,8.20
2023-01-07T03:21:04.311Z,8.23
2023-01-07T03:23:56.996Z,6.00
2023-01-07T03:26:48.118Z,7.60
2023-01-07T03:29:36.724Z,6.53
2023-01-07T03:32:29.317Z,6.70
2023-01-07T03:35:17.424Z,6.80
2023-01-07T03:38:05.619Z,7.20
2023-01-07T03:40:54.395Z,6.75
2023-01-07T03:43:41.189Z,7.82
2023-01-07T03:46:29.180Z,7.63
2023-01-07T03:49:17.138Z,7.13
2023-01-07T03:52:04.469Z,7.10
2023-01-07T03:54:52.302Z,8.10
2023-01-07T03:57:41.992Z,8.38
2023-01-07T04:00:29.699Z,8.43
2023-01-07T04:03:25.941Z,8.10
2023-01-07T04:06:13.657Z,9.15
2023-01-07T04:09:01.231Z,11.88
2023-01-07T04:11:48.656Z,8.57
2023-01-07T04:14:37.159Z,8.90
2023-01-07T04:17:24.390Z,8.68
2023-01-07T04:20:13.163Z,8.93
2023-01-07T04:23:01.014Z,10.18
2023-01-07T04:25:50.339Z,10.45
2023-01-07T04:28:42.432Z,10.63
2023-01-07T04:31:31.390Z,10.65
2023-01-07T04:34:18.908Z,10.45
2023-01-07T04:37:05.992Z,10.40
2023-01-07T04:39:53.212Z,12.65
2023-01-07T04:42:40.971Z,12.98
2023-01-07T04:45:29.912Z,10.00
2023-01-07T04:48:20.750Z,11.55
2023-01-07T04:51:10.981Z,10.23
2023-01-07T04:53:59.845Z,11.23
2023-01-07T04:56:47.754Z,9.05
2023-01-07T04:59:35.293Z,9.65
2023-01-07T05:02:23.754Z,10.70
2023-01-07T05:05:12.542Z,11.95
2023-01-07T05:08:00.883Z,14.15
2023-01-07T05:10:50.851Z,12.02
2023-01-07T05:13:38.449Z,11.13
2023-01-07T05:16:26.162Z,11.07
2023-01-07T05:19:15.442Z,10.10
2023-01-07T05:22:08.104Z,11.27
2023-01-07T05:24:59.320Z,11.30
2023-01-07T05:27:48.172Z,10.80
2023-01-07T05:30:36.223Z,10.20
2023-01-07T05:33:24.586Z,12.63
2023-01-07T05:36:12.879Z,12.32
2023-01-07T05:39:01.497Z,11.65
2023-01-07T05:41:48.878Z,11.65
2023-01-07T05:44:37.227Z,10.32
2023-01-07T05:47:24.261Z,9.13
2023-01-07T05:50:11.944Z,11.43
2023-01-07T05:52:59.525Z,13.82
2023-01-07T05:55:48.026Z,12.60
2023-01-07T05:58:35.653Z,12.30
2023-01-07T06:01:23.090Z,10.70
2023-01-07T06:04:10.858Z,9.70
2023-01-07T06:06:58.707Z,9.90
2023-01-07T06:09:46.423Z,11.13
2023-01-07T06:12:35.488Z,11.07
2023-01-07T06:15:22.713Z,12.20
2023-01-07T06:18:09.797Z,12.32
2023-01-07T06:20:57.233Z,10.15
2023-01-07T06:23:44.589Z,9.57
2023-01-07T06:26:32.019Z,10.07
2023-01-07T06:29:20.633Z,17.63
2023-01-07T06:32:08.323Z,18.30
2023-01-07T06:34:55.875Z,23.00
2023-01-07T06:37:43.076Z,21.73
2023-01-07T06:40:30.703Z,15.32
2023-01-07T06:43:17.851Z,16.02
2023-01-07T06:46:07.171Z,13.20
2023-01-07T06:48:54.519Z,12.80
2023-01-07T06:51:41.869Z,10.63
2023-01-07T06:54:29.060Z,11.10
2023-01-07T06:57:16.469Z,10.90
2023-01-07T07:00:07.166Z,12.20
2023-01-07T07:02:55.983Z,9.90
2023-01-07T07:05:43.681Z,10.07
2023-01-07T07:08:31.228Z,9.63
2023-01-07T07:11:18.588Z,9.02
2023-01-07T07:14:05.941Z,9.55
2023-01-07T07:16:53.386Z,10.38
2023-01-07T07:19:41.901Z,10.15
2023-01-07T07:22:29.408Z,10.05
2023-01-07T07:25:17.124Z,10.93
2023-01-07T07:28:04.851Z,10.68
2023-01-07T07:30:52.608Z,10.70
2023-01-07T07:33:39.670Z,9.40
2023-01-07T07:36:28.506Z,10.02
2023-01-07T07:39:18.845Z,11.07
2023-01-07T07:42:06.481Z,10.52
2023-01-07T07:44:53.774Z,9.85
2023-01-07T07:47:40.883Z,9.88
2023-01-07T07:50:27.973Z,11.32
2023-01-07T07:53:16.896Z,10.38
2023-01-07T07:56:04.028Z,10.07
2023-01-07T07:58:51.443Z,12.15
2023-01-07T08:01:38.945Z,10.07
2023-01-07T08:04:28.806Z,11.45
2023-01-07T08:07:32.565Z,10.50
2023-01-07T08:10:22.144Z,10.95
2023-01-07T08:13:10.251Z,13.25
2023-01-07T08:15:57.743Z,13.73
2023-01-07T08:18:45.132Z,13.48
2023-01-07T08:21:32.464Z,12.60
2023-01-07T08:24:19.885Z,12.43
2023-01-07T08:27:08.484Z,9.90
2023-01-07T08:29:56.379Z,14.02
2023-01-07T08:32:43.473Z,20.13
2023-01-07T08:35:31.095Z,21.42
2023-01-07T08:38:18.587Z,19.08
2023-01-07T08:41:06.099Z,24.08
2023-01-07T08:43:55.418Z,25.80
2023-01-07T08:46:42.982Z,34.45
2023-01-07T08:49:30.563Z,33.83
2023-01-07T08:52:18.171Z,27.95
2023-01-07T08:55:06.328Z,22.98
2023-01-07T08:57:54.284Z,18.33
2023-01-07T09:00:43.875Z,16.65
2023-01-07T09:03:31.081Z,17.40
2023-01-07T09:06:18.465Z,16.63
2023-01-07T09:09:06.163Z,18.17
2023-01-07T09:11:53.453Z,18.90
2023-01-07T09:14:40.789Z,18.75
2023-01-07T09:17:29.427Z,17.52
2023-01-07T09:20:16.991Z,20.48
2023-01-07T09:23:04.639Z,20.30
2023-01-07T09:25:52.173Z,19.42
2023-01-07T09:28:39.693Z,19.45
2023-01-07T09:31:27.069Z,19.90
2023-01-07T09:34:16.704Z,22.98
2023-01-07T09:37:04.023Z,21.23
2023-01-07T09:39:51.626Z,23.00
2023-01-07T09:42:52.128Z,23.33
2023-01-07T09:45:44.469Z,23.10
2023-01-07T09:48:35.103Z,21.92
2023-01-07T09:51:28.434Z,22.42
2023-01-07T09:54:23.523Z,25.10
2023-01-07T09:57:17.229Z,21.23
2023-01-07T10:00:11.657Z,21.80
2023-01-07T10:03:19.075Z,19.77
2023-01-07T10:06:12.527Z,20.17
2023-01-07T10:09:10.216Z,16.33
2023-01-07T10:12:05.426Z,17.00
2023-01-07T10:15:16.695Z,16.60
2023-01-07T10:18:20.703Z,15.65
2023-01-07T10:21:17.681Z,15.73
2023-01-07T10:27:01.917Z,15.60
2023-01-07T10:29:53.944Z,16.88
2023-01-07T10:32:42.653Z,15.45
2023-01-07T10:35:34.351Z,17.13
2023-01-07T10:38:22.144Z,20.73
2023-01-07T10:41:16.727Z,20.92
2023-01-07T10:44:31.091Z,18.75
2023-01-07T10:47:29.836Z,18.63
2023-01-07T10:50:43.225Z,16.08
2023-01-07T10:53:45.230Z,15.05
2023-01-07T10:56:37.910Z,13.95
2023-01-07T10:59:26.740Z,14.50
2023-01-07T11:02:19.043Z,15.95
2023-01-07T11:05:07.486Z,17.63
2023-01-07T11:08:01.583Z,16.52
2023-01-07T11:10:49.386Z,16.83
2023-01-07T11:13:42.285Z,15.38
2023-01-07T11:16:33.010Z,16.23
2023-01-07T11:19:23.367Z,15.50
2023-01-07T11:22:31.423Z,15.50
2023-01-07T11:25:30.187Z,15.90
2023-01-07T11:28:20.442Z,15.48
2023-01-07T11:31:09.259Z,14.93
2023-01-07T11:34:03.141Z,15.52
2023-01-07T11:36:52.353Z,14.57
2023-01-07T11:39:39.889Z,12.05
2023-01-07T11:42:42.151Z,11.88
2023-01-07T11:45:33.003Z,11.95
2023-01-07T11:48:27.288Z,12.02
2023-01-07T11:51:14.935Z,11.23
2023-01-07T11:54:02.434Z,9.75
2023-01-07T11:56:49.829Z,9.10
2023-01-07T11:59:37.461Z,8.93
2023-01-07T12:02:27.149Z,8.18
2023-01-07T12:05:22.633Z,8.15
2023-01-07T12:08:20.528Z,8.90
2023-01-07T12:11:10.120Z,9.20
2023-01-07T12:13:57.767Z,9.63
2023-01-07T12:16:45.997Z,9.05
2023-01-07T12:19:53.993Z,8.65
2023-01-07T12:22:52.409Z,8.85
2023-01-07T12:25:57.879Z,8.18
2023-01-07T12:29:01.937Z,8.57
2023-01-07T12:32:04.859Z,8.80
2023-01-07T12:34:57.090Z,8.52
2023-01-07T12:37:49.982Z,8.70
2023-01-07T12:40:41.736Z,8.63
2023-01-07T12:43:34.606Z,8.75
2023-01-07T12:46:23.784Z,8.18
2023-01-07T12:49:17.952Z,9.13
2023-01-07T12:52:09.343Z,9.05
2023-01-07T12:55:03.735Z,9.95
2023-01-07T12:58:04.347Z,9.43
2023-01-07T13:00:57.176Z,9.70
2023-01-07T13:03:52.957Z,9.15
2023-01-07T13:06:45.761Z,9.13
2023-01-07T13:09:41.088Z,9.57
2023-01-07T13:12:46.219Z,9.55
2023-01-07T13:15:38.199Z,9.95
2023-01-07T13:18:25.617Z,8.45
2023-01-07T13:21:14.953Z,8.07
2023-01-07T13:24:21.028Z,9.13
2023-01-07T13:27:51.937Z,8.50
2023-01-07T13:30:47.192Z,8.52
2023-01-07T13:33:44.992Z,8.95
2023-01-07T13:36:39.871Z,7.78
2023-01-07T13:39:42.203Z,6.82
2023-01-07T13:42:42.214Z,8.95
2023-01-07T13:45:33.380Z,8.98
2023-01-07T13:48:28.016Z,8.95
2023-01-07T13:51:16.311Z,8.35
2023-01-07T13:54:03.983Z,7.68
2023-01-07T13:56:52.717Z,8.00
2023-01-07T13:59:52.531Z,6.22
2023-01-07T14:02:57.001Z,6.65
2023-01-07T14:05:44.230Z,7.55
2023-01-07T14:08:32.402Z,7.05
2023-01-07T14:11:21.577Z,6.55
2023-01-07T14:14:15.899Z,6.72
2023-01-07T14:17:16.137Z,7.43
2023-01-07T14:20:12.628Z,6.22
2023-01-07T14:23:09.038Z,6.07
2023-01-07T14:26:13.239Z,6.63
2023-01-07T14:29:21.055Z,6.22
2023-01-07T14:32:37.721Z,6.50
2023-01-07T14:35:31.540Z,6.75
2023-01-07T14:38:47.993Z,6.07
2023-01-07T14:41:35.194Z,6.38
2023-01-07T14:44:30.349Z,6.28
2023-01-07T14:47:54.891Z,6.30
2023-01-07T14:50:48.178Z,8.75
2023-01-07T14:54:07.104Z,8.57
2023-01-07T14:57:04.082Z,8.63
2023-01-07T15:00:21.275Z,9.00
2023-01-07T15:03:40.749Z,8.32
2023-01-07T15:06:29.999Z,8.70
2023-01-07T15:09:38.721Z,8.65
2023-01-07T15:12:48.420Z,9.75
2023-01-07T15:15:56.199Z,10.18
2023-01-07T15:18:48.815Z,11.55
2023-01-07T15:21:45.936Z,12.45
2023-01-07T15:24:40.932Z,19.08
2023-01-07T15:27:39.205Z,16.48
2023-01-07T15:30:41.140Z,15.32
2023-01-07T15:34:07.328Z,17.90
2023-01-07T15:36:54.973Z,19.52
2023-01-07T15:39:48.558Z,18.88
2023-01-07T15:42:36.232Z,21.40
2023-01-07T15:45:27.022Z,21.27
2023-01-07T15:48:14.527Z,25.27
2023-01-07T15:51:03.281Z,22.48
2023-01-07T15:53:56.183Z,23.05
2023-01-07T15:56:43.494Z,24.92
2023-01-07T15:59:34.029Z,24.25
2023-01-07T16:02:25.949Z,22.98
2023-01-07T16:05:13.327Z,25.58
2023-01-07T16:08:02.955Z,25.52
2023-01-07T16:11:02.144Z,25.23
2023-01-07T16:13:56.798Z,23.95
2023-01-07T16:16:44.257Z,23.40
2023-01-07T16:19:32.025Z,21.48
2023-01-07T16:22:22.742Z,24.40
2023-01-07T16:25:14.457Z,24.35
2023-01-07T16:28:03.140Z,23.90
2023-01-07T16:30:52.677Z,23.08
2023-01-07T16:33:41.277Z,27.50
2023-01-07T16:36:32.248Z,28.08
2023-01-07T16:39:22.365Z,30.55
2023-01-07T16:42:23.453Z,25.92
2023-01-07T16:45:24.507Z,25.83
2023-01-07T16:48:20.015Z,25.85
2023-01-07T16:51:39.646Z,25.88
2023-01-07T16:54:37.173Z,24.38
2023-01-07T16:57:33.361Z,28.40
2023-01-07T17:00:20.949Z,28.17
2023-01-07T17:03:13.070Z,27.02
2023-01-07T17:06:04.532Z,27.88
2023-01-07T17:08:55.485Z,28.95
2023-01-07T17:11:42.716Z,29.63
2023-01-07T17:14:48.051Z,30.58
2023-01-07T17:17:35.569Z,32.03
2023-01-07T17:20:23.246Z,35.65
2023-01-07T17:23:41.961Z,35.10
2023-01-07T17:26:41.102Z,33.63
2023-01-07T17:29:35.821Z,35.80
2023-01-07T17:32:24.553Z,33.65
2023-01-07T17:35:18.795Z,28.25
2023-01-07T17:38:09.971Z,23.88
2023-01-07T17:40:57.164Z,24.33
2023-01-07T17:43:44.855Z,26.63
2023-01-07T17:46:31.905Z,27.17
2023-01-07T17:49:20.398Z,28.73
2023-01-07T17:52:10.203Z,32.20
2023-01-07T17:54:57.683Z,30.23
2023-01-07T17:57:45.114Z,33.22
2023-01-07T18:00:36.644Z,37.92
2023-01-07T18:03:24.450Z,34.05
2023-01-07T18:06:17.870Z,34.90
2023-01-07T18:09:08.477Z,33.67
2023-01-07T18:12:13.542Z,33.05
2023-01-07T18:15:02.120Z,32.00
2023-01-07T18:17:50.962Z,29.52
2023-01-07T18:20:38.306Z,26.25
2023-01-07T18:23:26.625Z,23.35
2023-01-07T18:26:14.846Z,20.65
2023-01-07T18:29:02.542Z,21.75
2023-01-07T18:31:49.841Z,20.38
2023-01-07T18:34:38.382Z,22.23
2023-01-07T18:37:25.931Z,21.08
2023-01-07T18:40:13.208Z,22.58
2023-01-07T18:43:00.977Z,22.33
2023-01-07T18:45:49.026Z,28.70
2023-01-07T18:48:37.267Z,29.23
2023-01-07T18:51:26.087Z,31.13
2023-01-07T18:54:13.632Z,29.52
2023-01-07T18:57:01.351Z,28.98
2023-01-07T18:59:48.719Z,26.30
2023-01-07T19:02:36.151Z,27.08
2023-01-07T19:05:23.375Z,27.75
2023-01-07T19:08:12.087Z,25.83
2023-01-07T19:10:59.210Z,25.45
2023-01-07T19:13:46.514Z,26.60
2023-01-07T19:16:33.843Z,28.73
2023-01-07T19:19:21.022Z,33.83
2023-01-07T19:22:08.287Z,32.95
2023-01-07T19:24:57.104Z,35.70
2023-01-07T19:27:44.818Z,34.50
2023-01-07T19:30:32.234Z,34.25
2023-01-07T19:33:19.553Z,33.97
2023-01-07T19:36:10.030Z,35.58
2023-01-07T19:38:57.605Z,36.22
2023-01-07T19:41:46.700Z,35.42
2023-01-07T19:44:34.590Z,37.55
2023-01-07T19:47:21.844Z,39.95
2023-01-07T19:50:12.299Z,39.47
2023-01-07T19:53:00.228Z,32.92
2023-01-07T19:55:47.559Z,33.95
2023-01-07T19:58:39.696Z,37.75
2023-01-07T20:01:28.691Z,39.33
2023-01-07T20:04:16.046Z,40.65
2023-01-07T20:07:03.230Z,38.58
2023-01-07T20:09:50.468Z,38.67
2023-01-07T20:12:38.050Z,38.42
2023-01-07T20:15:26.479Z,40.47
2023-01-07T20:18:15.869Z,39.40
2023-01-07T20:21:03.782Z,37.38
2023-01-07T20:23:51.276Z,37.85
2023-01-07T20:26:38.967Z,39.90
2023-01-07T20:29:26.557Z,39.38
2023-01-07T20:32:15.058Z,38.38
2023-01-07T20:35:02.587Z,41.55
2023-01-07T20:37:49.675Z,40.92
2023-01-07T20:40:39.791Z,46.28
2023-01-07T20:43:27.283Z,43.40
2023-01-07T20:46:14.350Z,40.95
2023-01-07T20:49:03.568Z,40.15
2023-01-07T20:51:51.129Z,42.08
2023-01-07T20:54:38.907Z,45.67
2023-01-07T20:57:26.493Z,47.42
2023-01-07T21:00:14.822Z,50.08
2023-01-07T21:03:02.034Z,46.40
2023-01-07T21:05:51.079Z,44.75
2023-01-07T21:08:38.777Z,46.78
2023-01-07T21:11:26.695Z,45.42
2023-01-07T21:14:14.265Z,45.88
2023-01-07T21:17:01.796Z,41.33
2023-01-07T21:19:49.283Z,43.65
2023-01-07T21:22:38.936Z,42.30
2023-01-07T21:25:26.426Z,41.13
2023-01-07T21:28:13.497Z,39.20
2023-01-07T21:31:04.887Z,40.30
2023-01-07T21:33:55.234Z,38.63
2023-01-07T21:36:43.033Z,38.53
2023-01-07T21:39:31.761Z,38.92
2023-01-07T21:42:18.971Z,38.58
2023-01-07T21:45:07.641Z,37.42
2023-01-07T21:47:55.139Z,37.88
2023-01-07T21:50:42.251Z,34.80
2023-01-07T21:53:31.085Z,33.20
2023-01-07T21:56:21.750Z,34.55
2023-01-07T21:59:10.025Z,35.80
2023-01-07T22:01:57.456Z,37.30
2023-01-07T22:04:46.211Z,37.10
2023-01-07T22:07:33.567Z,36.70
2023-01-07T22:10:20.992Z,36.35
2023-01-07T22:13:09.849Z,32.20
2023-01-07T22:15:57.102Z,31.95
2023-01-07T22:18:44.410Z,33.58
2023-01-07T22:21:31.724Z,32.15
2023-01-07T22:24:19.349Z,31.70
2023-01-07T22:27:06.962Z,30.25
2023-01-07T22:29:56.182Z,30.15
2023-01-07T22:32:43.418Z,30.60
2023-01-07T22:35:30.748Z,28.77
2023-01-07T22:38:19.115Z,30.88
2023-01-07T22:41:09.308Z,29.63
2023-01-07T22:43:59.211Z,29.63
2023-01-07T22:46:51.206Z,29.52
2023-01-07T22:49:40.079Z,31.33
2023-01-07T22:52:27.480Z,32.85
2023-01-07T22:55:14.860Z,34.05
2023-01-07T22:58:02.380Z,37.03
2023-01-07T23:01:12.745Z,33.33
2023-01-07T23:04:02.007Z,33.45
2023-01-07T23:06:49.111Z,31.67
2023-01-07T23:09:36.397Z,31.00
2023-01-07T23:12:23.468Z,31.15
2023-01-07T23:15:13.201Z,33.17
2023-01-07T23:18:00.387Z,30.45
2023-01-07T23:20:49.317Z,31.98
2023-01-07T23:23:36.548Z,30.92
2023-01-07T23:26:23.935Z,28.38
2023-01-07T23:29:11.521Z,29.42
2023-01-07T23:31:58.668Z,32.13
2023-01-07T23:34:45.757Z,31.52
2023-01-07T23:37:34.647Z,31.52
2023-01-07T23:40:21.728Z,33.30
2023-01-07T23:43:09.087Z,30.63
2023-01-07T23:45:58.491Z,29.10
2023-01-07T23:48:45.722Z,28.92
2023-01-07T23:51:32.902Z,30.70
2023-01-07T23:54:22.796Z,30.10
2023-01-07T23:57:10.395Z,30.33
2023-01-07T23:59:58.223Z,30.92
